עמוד ראשי
METAR-TAF:

METAR-TAF

שדות תעופה :

קואנקה, אקוודור

קו רוחב: 02-53-22S, קו אורך: 078-59-04W, גובה: 2532מטר

תצפית מזג אוויר נוכחית

הדו"ח נערך לפני 6 שעות ו 28דקות, בשעה 04:00 UTC
רוח 7קשר מכיוון מזרח/צפון-מזרח
טמפרטורת 14 צלסיוס
לחות 100%
לחץ 1029 hPa
ראות 10 קילומטר או יותר
עננים בינוניים בגובה 3000רגל
גשם,

METAR: SECU 120400Z 06007KT 9999 RA BKN030 14/14 Q1029

זמן: 05:28 (10:28 UTC)


TAF: חסר

תצפיות ותחזיות מזג אוויר לגבי יותר מ- 4,000 שדות תעופה ברחבי העולם. דוחות METAR ו- TAF.

התחנות הזמינות מסומנות בנקודות צהובות ואדומות על גבי המפה.

העבר את העכבר לנקודה הצבעונית על מנת לראות את שם התחנה.

לאחר מכן, לחץ כדי לראות את תוכן ואת תחזיות מזג האוויר.

כדי לשנות את המפה: לחץ על הכפתורים הירוקים עם הפלוס השחור כדי להתקרב; על הכפתור הירוק עם המקף כדי להתרחק; או בחיצים הירוקים למפות סמוכות.


METAR-TAF: